sensor_id;sensor_type;location;lat;lon;timestamp;P1;durP1;ratioP1;P2;durP2;ratioP2
9236;SDS011;24579;42.810;23.214;2022-08-21T00:00:04;16.80;;;12.75;;
9236;SDS011;24579;42.810;23.214;2022-08-21T00:02:34;16.33;;;12.57;;
9236;SDS011;24579;42.810;23.214;2022-08-21T00:05:02;16.52;;;12.77;;
9236;SDS011;24579;42.810;23.214;2022-08-21T00:07:29;19.90;;;13.73;;
9236;SDS011;24579;42.810;23.214;2022-08-21T00:09:58;18.67;;;13.38;;
9236;SDS011;24579;42.810;23.214;2022-08-21T00:12:25;18.90;;;13.75;;
9236;SDS011;24579;42.810;23.214;2022-08-21T00:14:52;20.48;;;14.25;;
9236;SDS011;24579;42.810;23.214;2022-08-21T00:17:19;20.38;;;13.38;;
9236;SDS011;24579;42.810;23.214;2022-08-21T00:19:46;15.18;;;13.07;;
9236;SDS011;24579;42.810;23.214;2022-08-21T00:22:13;21.20;;;13.70;;
9236;SDS011;24579;42.810;23.214;2022-08-21T00:24:40;18.73;;;13.05;;
9236;SDS011;24579;42.810;23.214;2022-08-21T00:27:09;20.13;;;13.15;;
9236;SDS011;24579;42.810;23.214;2022-08-21T00:29:36;17.92;;;13.57;;
9236;SDS011;24579;42.810;23.214;2022-08-21T00:32:03;20.00;;;14.00;;
9236;SDS011;24579;42.810;23.214;2022-08-21T00:34:30;17.73;;;13.73;;
9236;SDS011;24579;42.810;23.214;2022-08-21T00:36:57;16.80;;;13.50;;
9236;SDS011;24579;42.810;23.214;2022-08-21T00:39:24;17.08;;;13.35;;
9236;SDS011;24579;42.810;23.214;2022-08-21T00:41:51;18.83;;;13.30;;
9236;SDS011;24579;42.810;23.214;2022-08-21T00:44:19;16.77;;;13.38;;
9236;SDS011;24579;42.810;23.214;2022-08-21T00:46:46;17.35;;;13.55;;
9236;SDS011;24579;42.810;23.214;2022-08-21T00:49:13;17.60;;;13.60;;
9236;SDS011;24579;42.810;23.214;2022-08-21T00:51:42;17.50;;;13.80;;
9236;SDS011;24579;42.810;23.214;2022-08-21T00:54:11;16.15;;;13.45;;
9236;SDS011;24579;42.810;23.214;2022-08-21T00:56:39;19.77;;;14.60;;
9236;SDS011;24579;42.810;23.214;2022-08-21T00:59:06;17.02;;;13.60;;
9236;SDS011;24579;42.810;23.214;2022-08-21T01:01:35;19.10;;;15.05;;
9236;SDS011;24579;42.810;23.214;2022-08-21T01:04:02;23.17;;;14.63;;
9236;SDS011;24579;42.810;23.214;2022-08-21T01:06:29;17.35;;;14.63;;
9236;SDS011;24579;42.810;23.214;2022-08-21T01:08:57;22.00;;;15.05;;
9236;SDS011;24579;42.810;23.214;2022-08-21T01:11:24;22.25;;;15.98;;
9236;SDS011;24579;42.810;23.214;2022-08-21T01:13:51;25.42;;;17.75;;
9236;SDS011;24579;42.810;23.214;2022-08-21T01:16:20;22.42;;;16.98;;
9236;SDS011;24579;42.810;23.214;2022-08-21T01:18:50;25.27;;;17.70;;
9236;SDS011;24579;42.810;23.214;2022-08-21T01:21:19;21.10;;;16.75;;
9236;SDS011;24579;42.810;23.214;2022-08-21T01:23:49;24.90;;;17.23;;
9236;SDS011;24579;42.810;23.214;2022-08-21T01:26:19;24.42;;;17.60;;
9236;SDS011;24579;42.810;23.214;2022-08-21T01:28:48;25.00;;;18.48;;
9236;SDS011;24579;42.810;23.214;2022-08-21T01:31:18;29.50;;;20.52;;
9236;SDS011;24579;42.810;23.214;2022-08-21T01:33:47;30.63;;;21.95;;
9236;SDS011;24579;42.810;23.214;2022-08-21T01:36:14;31.60;;;21.25;;
9236;SDS011;24579;42.810;23.214;2022-08-21T01:38:43;30.67;;;21.25;;
9236;SDS011;24579;42.810;23.214;2022-08-21T01:41:10;30.38;;;19.20;;
9236;SDS011;24579;42.810;23.214;2022-08-21T01:43:37;23.73;;;18.23;;
9236;SDS011;24579;42.810;23.214;2022-08-21T01:46:04;23.48;;;17.60;;
9236;SDS011;24579;42.810;23.214;2022-08-21T01:48:31;26.08;;;16.38;;
9236;SDS011;24579;42.810;23.214;2022-08-21T01:50:58;22.83;;;15.52;;
9236;SDS011;24579;42.810;23.214;2022-08-21T01:53:25;21.25;;;16.30;;
9236;SDS011;24579;42.810;23.214;2022-08-21T01:55:54;21.00;;;17.35;;
9236;SDS011;24579;42.810;23.214;2022-08-21T01:58:21;21.85;;;16.92;;
9236;SDS011;24579;42.810;23.214;2022-08-21T02:00:48;21.88;;;17.23;;
9236;SDS011;24579;42.810;23.214;2022-08-21T02:03:15;27.58;;;19.02;;
9236;SDS011;24579;42.810;23.214;2022-08-21T02:05:42;25.80;;;17.63;;
9236;SDS011;24579;42.810;23.214;2022-08-21T02:08:09;27.13;;;18.45;;
9236;SDS011;24579;42.810;23.214;2022-08-21T02:10:36;26.98;;;18.88;;
9236;SDS011;24579;42.810;23.214;2022-08-21T02:13:04;22.77;;;18.42;;
9236;SDS011;24579;42.810;23.214;2022-08-21T02:15:32;24.80;;;18.48;;
9236;SDS011;24579;42.810;23.214;2022-08-21T02:18:00;23.27;;;17.40;;
9236;SDS011;24579;42.810;23.214;2022-08-21T02:20:29;23.80;;;17.15;;
9236;SDS011;24579;42.810;23.214;2022-08-21T02:22:58;23.08;;;17.45;;
9236;SDS011;24579;42.810;23.214;2022-08-21T02:25:26;23.27;;;18.05;;
9236;SDS011;24579;42.810;23.214;2022-08-21T02:27:54;22.48;;;17.13;;
9236;SDS011;24579;42.810;23.214;2022-08-21T02:30:23;25.55;;;17.85;;
9236;SDS011;24579;42.810;23.214;2022-08-21T02:32:52;24.17;;;17.30;;
9236;SDS011;24579;42.810;23.214;2022-08-21T02:35:19;23.85;;;17.42;;
9236;SDS011;24579;42.810;23.214;2022-08-21T02:37:50;23.48;;;17.08;;
9236;SDS011;24579;42.810;23.214;2022-08-21T02:40:19;24.13;;;16.50;;
9236;SDS011;24579;42.810;23.214;2022-08-21T02:42:47;25.23;;;17.25;;
9236;SDS011;24579;42.810;23.214;2022-08-21T02:45:14;22.05;;;17.08;;
9236;SDS011;24579;42.810;23.214;2022-08-21T02:47:48;24.83;;;16.90;;
9236;SDS011;24579;42.810;23.214;2022-08-21T02:50:17;22.70;;;16.90;;
9236;SDS011;24579;42.810;23.214;2022-08-21T02:52:46;19.45;;;16.98;;
9236;SDS011;24579;42.810;23.214;2022-08-21T02:55:14;26.50;;;18.40;;
9236;SDS011;24579;42.810;23.214;2022-08-21T02:57:41;24.08;;;17.92;;
9236;SDS011;24579;42.810;23.214;2022-08-21T03:00:08;27.27;;;17.80;;
9236;SDS011;24579;42.810;23.214;2022-08-21T03:02:37;24.98;;;18.05;;
9236;SDS011;24579;42.810;23.214;2022-08-21T03:05:06;22.17;;;17.92;;
9236;SDS011;24579;42.810;23.214;2022-08-21T03:07:34;27.92;;;18.58;;
9236;SDS011;24579;42.810;23.214;2022-08-21T03:10:02;25.60;;;18.45;;
9236;SDS011;24579;42.810;23.214;2022-08-21T03:12:29;31.98;;;20.08;;
9236;SDS011;24579;42.810;23.214;2022-08-21T03:14:56;27.73;;;18.77;;
9236;SDS011;24579;42.810;23.214;2022-08-21T03:17:23;29.77;;;20.65;;
9236;SDS011;24579;42.810;23.214;2022-08-21T03:19:51;27.40;;;19.67;;
9236;SDS011;24579;42.810;23.214;2022-08-21T03:22:19;30.95;;;19.50;;
9236;SDS011;24579;42.810;23.214;2022-08-21T03:24:46;27.60;;;20.27;;
9236;SDS011;24579;42.810;23.214;2022-08-21T03:27:13;26.30;;;18.75;;
9236;SDS011;24579;42.810;23.214;2022-08-21T03:29:40;28.05;;;20.65;;
9236;SDS011;24579;42.810;23.214;2022-08-21T03:32:07;32.30;;;22.20;;
9236;SDS011;24579;42.810;23.214;2022-08-21T03:34:34;35.13;;;23.55;;
9236;SDS011;24579;42.810;23.214;2022-08-21T03:37:01;36.22;;;23.10;;
9236;SDS011;24579;42.810;23.214;2022-08-21T03:39:30;34.65;;;22.67;;
9236;SDS011;24579;42.810;23.214;2022-08-21T03:41:57;36.28;;;22.70;;
9236;SDS011;24579;42.810;23.214;2022-08-21T03:44:25;31.90;;;22.67;;
9236;SDS011;24579;42.810;23.214;2022-08-21T03:46:53;30.60;;;21.10;;
9236;SDS011;24579;42.810;23.214;2022-08-21T03:49:20;28.42;;;19.10;;
9236;SDS011;24579;42.810;23.214;2022-08-21T03:51:48;27.27;;;17.83;;
9236;SDS011;24579;42.810;23.214;2022-08-21T03:54:15;25.27;;;17.92;;
9236;SDS011;24579;42.810;23.214;2022-08-21T03:56:43;26.83;;;17.38;;
9236;SDS011;24579;42.810;23.214;2022-08-21T03:59:10;31.23;;;16.70;;
9236;SDS011;24579;42.810;23.214;2022-08-21T04:01:37;22.80;;;15.88;;
9236;SDS011;24579;42.810;23.214;2022-08-21T04:04:06;21.33;;;14.98;;
9236;SDS011;24579;42.810;23.214;2022-08-21T04:06:33;21.58;;;14.82;;
9236;SDS011;24579;42.810;23.214;2022-08-21T04:09:00;17.10;;;14.70;;
9236;SDS011;24579;42.810;23.214;2022-08-21T04:11:26;23.92;;;15.52;;
9236;SDS011;24579;42.810;23.214;2022-08-21T04:13:55;20.27;;;14.45;;
9236;SDS011;24579;42.810;23.214;2022-08-21T04:16:22;20.33;;;13.80;;
9236;SDS011;24579;42.810;23.214;2022-08-21T04:18:49;19.20;;;13.48;;
9236;SDS011;24579;42.810;23.214;2022-08-21T04:21:16;17.73;;;13.77;;
9236;SDS011;24579;42.810;23.214;2022-08-21T04:23:43;18.98;;;13.25;;
9236;SDS011;24579;42.810;23.214;2022-08-21T04:26:10;21.70;;;14.75;;
9236;SDS011;24579;42.810;23.214;2022-08-21T04:28:37;18.77;;;14.20;;
9236;SDS011;24579;42.810;23.214;2022-08-21T04:31:05;21.75;;;13.98;;
9236;SDS011;24579;42.810;23.214;2022-08-21T04:33:32;22.52;;;13.73;;
9236;SDS011;24579;42.810;23.214;2022-08-21T04:36:00;19.48;;;13.80;;
9236;SDS011;24579;42.810;23.214;2022-08-21T04:38:27;21.15;;;13.63;;
9236;SDS011;24579;42.810;23.214;2022-08-21T04:40:56;16.50;;;13.13;;
9236;SDS011;24579;42.810;23.214;2022-08-21T04:43:23;14.95;;;12.18;;
9236;SDS011;24579;42.810;23.214;2022-08-21T04:45:50;17.13;;;12.07;;
9236;SDS011;24579;42.810;23.214;2022-08-21T04:48:21;19.02;;;12.43;;
9236;SDS011;24579;42.810;23.214;2022-08-21T04:50:50;16.73;;;11.77;;
9236;SDS011;24579;42.810;23.214;2022-08-21T04:53:22;15.25;;;12.13;;
9236;SDS011;24579;42.810;23.214;2022-08-21T04:55:52;18.70;;;11.85;;
9236;SDS011;24579;42.810;23.214;2022-08-21T04:58:22;16.55;;;12.25;;
9236;SDS011;24579;42.810;23.214;2022-08-21T05:00:52;17.90;;;12.18;;
9236;SDS011;24579;42.810;23.214;2022-08-21T05:03:23;17.02;;;11.82;;
9236;SDS011;24579;42.810;23.214;2022-08-21T05:05:50;17.17;;;12.10;;
9236;SDS011;24579;42.810;23.214;2022-08-21T05:08:19;19.05;;;12.73;;
9236;SDS011;24579;42.810;23.214;2022-08-21T05:10:50;18.15;;;13.13;;
9236;SDS011;24579;42.810;23.214;2022-08-21T05:13:17;21.63;;;16.27;;
9236;SDS011;24579;42.810;23.214;2022-08-21T05:15:44;22.15;;;16.83;;
9236;SDS011;24579;42.810;23.214;2022-08-21T05:18:12;24.75;;;17.73;;
9236;SDS011;24579;42.810;23.214;2022-08-21T05:20:40;25.75;;;17.58;;
9236;SDS011;24579;42.810;23.214;2022-08-21T05:23:10;22.92;;;17.52;;
9236;SDS011;24579;42.810;23.214;2022-08-21T05:25:38;24.55;;;17.95;;
9236;SDS011;24579;42.810;23.214;2022-08-21T05:28:05;23.95;;;17.15;;
9236;SDS011;24579;42.810;23.214;2022-08-21T05:30:32;24.25;;;17.10;;
9236;SDS011;24579;42.810;23.214;2022-08-21T05:33:00;22.23;;;16.95;;
9236;SDS011;24579;42.810;23.214;2022-08-21T05:35:29;28.50;;;20.63;;
9236;SDS011;24579;42.810;23.214;2022-08-21T05:37:58;23.92;;;17.98;;
9236;SDS011;24579;42.810;23.214;2022-08-21T05:40:26;24.40;;;17.92;;
9236;SDS011;24579;42.810;23.214;2022-08-21T05:42:54;22.90;;;17.60;;
9236;SDS011;24579;42.810;23.214;2022-08-21T05:45:21;23.55;;;17.73;;
9236;SDS011;24579;42.810;23.214;2022-08-21T05:47:49;20.55;;;17.77;;
9236;SDS011;24579;42.810;23.214;2022-08-21T05:50:16;25.90;;;18.35;;
9236;SDS011;24579;42.810;23.214;2022-08-21T05:52:43;27.77;;;18.13;;
9236;SDS011;24579;42.810;23.214;2022-08-21T05:55:12;27.20;;;18.73;;
9236;SDS011;24579;42.810;23.214;2022-08-21T05:57:39;26.02;;;18.98;;
9236;SDS011;24579;42.810;23.214;2022-08-21T06:00:07;22.95;;;18.33;;
9236;SDS011;24579;42.810;23.214;2022-08-21T06:02:37;24.52;;;20.25;;
9236;SDS011;24579;42.810;23.214;2022-08-21T06:05:04;22.88;;;20.42;;
9236;SDS011;24579;42.810;23.214;2022-08-21T06:07:32;26.95;;;20.10;;
9236;SDS011;24579;42.810;23.214;2022-08-21T06:09:59;26.85;;;20.88;;
9236;SDS011;24579;42.810;23.214;2022-08-21T06:12:27;29.90;;;21.58;;
9236;SDS011;24579;42.810;23.214;2022-08-21T06:14:54;31.90;;;22.98;;
9236;SDS011;24579;42.810;23.214;2022-08-21T06:17:21;27.60;;;21.02;;
9236;SDS011;24579;42.810;23.214;2022-08-21T06:19:50;28.75;;;21.65;;
9236;SDS011;24579;42.810;23.214;2022-08-21T06:22:17;28.90;;;22.08;;
9236;SDS011;24579;42.810;23.214;2022-08-21T06:24:44;30.60;;;22.30;;
9236;SDS011;24579;42.810;23.214;2022-08-21T06:27:12;34.47;;;21.02;;
9236;SDS011;24579;42.810;23.214;2022-08-21T06:29:41;29.30;;;21.60;;
9236;SDS011;24579;42.810;23.214;2022-08-21T06:32:10;32.90;;;21.80;;
9236;SDS011;24579;42.810;23.214;2022-08-21T06:34:38;30.30;;;22.27;;
9236;SDS011;24579;42.810;23.214;2022-08-21T06:37:06;32.83;;;22.15;;
9236;SDS011;24579;42.810;23.214;2022-08-21T06:39:34;27.60;;;21.15;;
9236;SDS011;24579;42.810;23.214;2022-08-21T06:42:01;28.05;;;21.13;;
9236;SDS011;24579;42.810;23.214;2022-08-21T06:44:28;27.08;;;21.90;;
9236;SDS011;24579;42.810;23.214;2022-08-21T06:46:58;28.65;;;22.15;;
9236;SDS011;24579;42.810;23.214;2022-08-21T06:49:25;30.98;;;21.75;;
9236;SDS011;24579;42.810;23.214;2022-08-21T06:51:52;27.88;;;20.55;;
9236;SDS011;24579;42.810;23.214;2022-08-21T06:54:19;27.58;;;21.33;;
9236;SDS011;24579;42.810;23.214;2022-08-21T06:56:46;28.10;;;22.83;;
9236;SDS011;24579;42.810;23.214;2022-08-21T06:59:13;26.25;;;19.92;;
9236;SDS011;24579;42.810;23.214;2022-08-21T07:01:40;28.98;;;20.55;;
9236;SDS011;24579;42.810;23.214;2022-08-21T07:04:08;30.20;;;19.98;;
9236;SDS011;24579;42.810;23.214;2022-08-21T07:06:36;29.27;;;19.95;;
9236;SDS011;24579;42.810;23.214;2022-08-21T07:09:03;26.15;;;18.30;;
9236;SDS011;24579;42.810;23.214;2022-08-21T07:11:30;22.13;;;17.00;;
9236;SDS011;24579;42.810;23.214;2022-08-21T07:13:57;20.80;;;16.42;;
9236;SDS011;24579;42.810;23.214;2022-08-21T07:16:24;20.40;;;16.33;;
9236;SDS011;24579;42.810;23.214;2022-08-21T07:18:51;21.20;;;14.82;;
9236;SDS011;24579;42.810;23.214;2022-08-21T07:21:20;25.52;;;15.80;;
9236;SDS011;24579;42.810;23.214;2022-08-21T07:23:48;17.85;;;13.88;;
9236;SDS011;24579;42.810;23.214;2022-08-21T07:26:18;21.00;;;14.38;;
9236;SDS011;24579;42.810;23.214;2022-08-21T07:28:47;15.57;;;13.48;;
9236;SDS011;24579;42.810;23.214;2022-08-21T07:31:15;22.73;;;13.75;;
9236;SDS011;24579;42.810;23.214;2022-08-21T07:33:44;18.10;;;13.60;;
9236;SDS011;24579;42.810;23.214;2022-08-21T07:36:12;16.75;;;13.20;;
9236;SDS011;24579;42.810;23.214;2022-08-21T07:38:41;17.13;;;14.10;;
9236;SDS011;24579;42.810;23.214;2022-08-21T07:41:10;16.92;;;13.70;;
9236;SDS011;24579;42.810;23.214;2022-08-21T07:43:40;17.80;;;13.43;;
9236;SDS011;24579;42.810;23.214;2022-08-21T07:46:07;20.75;;;15.45;;
9236;SDS011;24579;42.810;23.214;2022-08-21T07:48:35;23.60;;;16.05;;
9236;SDS011;24579;42.810;23.214;2022-08-21T07:51:06;18.42;;;15.70;;
9236;SDS011;24579;42.810;23.214;2022-08-21T07:53:36;22.42;;;16.75;;
9236;SDS011;24579;42.810;23.214;2022-08-21T07:56:05;20.55;;;16.42;;
9236;SDS011;24579;42.810;23.214;2022-08-21T07:58:35;22.85;;;15.93;;
9236;SDS011;24579;42.810;23.214;2022-08-21T08:01:03;19.95;;;15.52;;
9236;SDS011;24579;42.810;23.214;2022-08-21T08:03:31;20.65;;;15.00;;
9236;SDS011;24579;42.810;23.214;2022-08-21T08:05:58;22.30;;;15.27;;
9236;SDS011;24579;42.810;23.214;2022-08-21T08:08:25;20.27;;;13.63;;
9236;SDS011;24579;42.810;23.214;2022-08-21T08:10:52;20.67;;;13.55;;
9236;SDS011;24579;42.810;23.214;2022-08-21T08:13:23;15.43;;;13.15;;
9236;SDS011;24579;42.810;23.214;2022-08-21T08:15:51;17.90;;;13.23;;
9236;SDS011;24579;42.810;23.214;2022-08-21T08:18:18;15.55;;;11.90;;
9236;SDS011;24579;42.810;23.214;2022-08-21T08:20:45;16.23;;;12.32;;
9236;SDS011;24579;42.810;23.214;2022-08-21T08:23:12;17.35;;;13.20;;
9236;SDS011;24579;42.810;23.214;2022-08-21T08:25:40;18.75;;;13.95;;
9236;SDS011;24579;42.810;23.214;2022-08-21T08:28:07;17.15;;;11.05;;
9236;SDS011;24579;42.810;23.214;2022-08-21T08:30:36;16.30;;;11.23;;
9236;SDS011;24579;42.810;23.214;2022-08-21T08:33:03;17.75;;;11.95;;
9236;SDS011;24579;42.810;23.214;2022-08-21T08:35:30;16.42;;;11.80;;
9236;SDS011;24579;42.810;23.214;2022-08-21T08:37:57;16.60;;;10.25;;
9236;SDS011;24579;42.810;23.214;2022-08-21T08:40:25;17.48;;;10.43;;
9236;SDS011;24579;42.810;23.214;2022-08-21T08:42:59;17.13;;;12.80;;
9236;SDS011;24579;42.810;23.214;2022-08-21T08:45:26;16.80;;;12.23;;
9236;SDS011;24579;42.810;23.214;2022-08-21T08:47:58;14.73;;;12.40;;
9236;SDS011;24579;42.810;23.214;2022-08-21T08:53:24;20.95;;;12.68;;
9236;SDS011;24579;42.810;23.214;2022-08-21T08:55:56;18.40;;;11.45;;
9236;SDS011;24579;42.810;23.214;2022-08-21T08:58:27;18.33;;;12.52;;
9236;SDS011;24579;42.810;23.214;2022-08-21T09:00:56;20.10;;;10.75;;
9236;SDS011;24579;42.810;23.214;2022-08-21T09:03:26;14.65;;;10.02;;
9236;SDS011;24579;42.810;23.214;2022-08-21T09:05:56;14.77;;;11.65;;
9236;SDS011;24579;42.810;23.214;2022-08-21T09:08:36;14.55;;;11.40;;
9236;SDS011;24579;42.810;23.214;2022-08-21T09:11:16;19.23;;;10.85;;
9236;SDS011;24579;42.810;23.214;2022-08-21T09:13:54;12.82;;;9.32;;
9236;SDS011;24579;42.810;23.214;2022-08-21T09:16:33;11.77;;;9.07;;
9236;SDS011;24579;42.810;23.214;2022-08-21T09:19:17;17.50;;;10.02;;
9236;SDS011;24579;42.810;23.214;2022-08-21T09:22:02;14.85;;;10.65;;
9236;SDS011;24579;42.810;23.214;2022-08-21T09:24:37;16.52;;;10.23;;
9236;SDS011;24579;42.810;23.214;2022-08-21T09:27:10;14.10;;;9.73;;
9236;SDS011;24579;42.810;23.214;2022-08-21T09:29:40;16.48;;;9.18;;
9236;SDS011;24579;42.810;23.214;2022-08-21T09:32:10;14.35;;;9.65;;
9236;SDS011;24579;42.810;23.214;2022-08-21T09:34:56;14.60;;;8.40;;
9236;SDS011;24579;42.810;23.214;2022-08-21T09:37:25;17.60;;;8.90;;
9236;SDS011;24579;42.810;23.214;2022-08-21T09:39:55;10.85;;;8.05;;
9236;SDS011;24579;42.810;23.214;2022-08-21T09:42:24;15.63;;;8.73;;
9236;SDS011;24579;42.810;23.214;2022-08-21T09:45:05;12.20;;;8.35;;
9236;SDS011;24579;42.810;23.214;2022-08-21T09:47:35;13.65;;;8.80;;
9236;SDS011;24579;42.810;23.214;2022-08-21T09:50:12;12.35;;;8.13;;
9236;SDS011;24579;42.810;23.214;2022-08-21T09:52:45;12.90;;;8.38;;
9236;SDS011;24579;42.810;23.214;2022-08-21T09:55:15;15.02;;;8.73;;
9236;SDS011;24579;42.810;23.214;2022-08-21T09:57:59;11.68;;;7.60;;
9236;SDS011;24579;42.810;23.214;2022-08-21T10:00:29;9.68;;;7.90;;
9236;SDS011;24579;42.810;23.214;2022-08-21T10:03:11;14.45;;;8.32;;
9236;SDS011;24579;42.810;23.214;2022-08-21T10:05:50;13.77;;;8.63;;
9236;SDS011;24579;42.810;23.214;2022-08-21T10:08:20;15.85;;;9.02;;
9236;SDS011;24579;42.810;23.214;2022-08-21T10:10:50;10.75;;;8.02;;
9236;SDS011;24579;42.810;23.214;2022-08-21T10:13:21;13.85;;;8.57;;
9236;SDS011;24579;42.810;23.214;2022-08-21T10:15:58;13.23;;;9.02;;
9236;SDS011;24579;42.810;23.214;2022-08-21T10:18:37;12.40;;;9.10;;
9236;SDS011;24579;42.810;23.214;2022-08-21T10:21:13;11.13;;;7.75;;
9236;SDS011;24579;42.810;23.214;2022-08-21T10:23:51;11.88;;;7.80;;
9236;SDS011;24579;42.810;23.214;2022-08-21T10:26:33;14.63;;;8.40;;
9236;SDS011;24579;42.810;23.214;2022-08-21T10:29:12;12.20;;;7.22;;
9236;SDS011;24579;42.810;23.214;2022-08-21T10:31:50;9.27;;;6.97;;
9236;SDS011;24579;42.810;23.214;2022-08-21T10:34:36;12.77;;;7.45;;
9236;SDS011;24579;42.810;23.214;2022-08-21T10:37:16;11.50;;;6.70;;
9236;SDS011;24579;42.810;23.214;2022-08-21T10:39:55;13.70;;;8.40;;
9236;SDS011;24579;42.810;23.214;2022-08-21T10:42:29;11.98;;;7.55;;
9236;SDS011;24579;42.810;23.214;2022-08-21T10:45:06;13.60;;;8.18;;
9236;SDS011;24579;42.810;23.214;2022-08-21T10:47:42;13.20;;;8.00;;
9236;SDS011;24579;42.810;23.214;2022-08-21T10:50:17;15.73;;;8.23;;
9236;SDS011;24579;42.810;23.214;2022-08-21T10:52:56;11.02;;;7.57;;
9236;SDS011;24579;42.810;23.214;2022-08-21T10:55:43;12.15;;;8.70;;
9236;SDS011;24579;42.810;23.214;2022-08-21T10:58:15;18.55;;;7.80;;
9236;SDS011;24579;42.810;23.214;2022-08-21T11:00:48;10.45;;;7.53;;
9236;SDS011;24579;42.810;23.214;2022-08-21T11:03:20;11.55;;;8.35;;
9236;SDS011;24579;42.810;23.214;2022-08-21T11:05:51;10.30;;;7.75;;
9236;SDS011;24579;42.810;23.214;2022-08-21T11:08:23;17.48;;;9.40;;
9236;SDS011;24579;42.810;23.214;2022-08-21T11:10:57;10.88;;;7.43;;
9236;SDS011;24579;42.810;23.214;2022-08-21T11:13:29;38.63;;;8.65;;
9236;SDS011;24579;42.810;23.214;2022-08-21T11:16:05;12.57;;;7.57;;
9236;SDS011;24579;42.810;23.214;2022-08-21T11:18:39;16.73;;;8.68;;
9236;SDS011;24579;42.810;23.214;2022-08-21T11:21:15;11.43;;;7.70;;
9236;SDS011;24579;42.810;23.214;2022-08-21T11:23:57;11.68;;;7.95;;
9236;SDS011;24579;42.810;23.214;2022-08-21T11:26:30;11.52;;;7.45;;
9236;SDS011;24579;42.810;23.214;2022-08-21T11:29:04;12.27;;;7.78;;
9236;SDS011;24579;42.810;23.214;2022-08-21T11:31:39;15.38;;;7.35;;
9236;SDS011;24579;42.810;23.214;2022-08-21T11:34:21;12.57;;;7.13;;
9236;SDS011;24579;42.810;23.214;2022-08-21T11:37:01;10.77;;;7.38;;
9236;SDS011;24579;42.810;23.214;2022-08-21T11:39:38;12.82;;;8.35;;
9236;SDS011;24579;42.810;23.214;2022-08-21T11:42:13;11.73;;;7.10;;
9236;SDS011;24579;42.810;23.214;2022-08-21T11:44:49;10.07;;;6.85;;
9236;SDS011;24579;42.810;23.214;2022-08-21T11:47:30;15.27;;;7.30;;
9236;SDS011;24579;42.810;23.214;2022-08-21T11:50:12;11.85;;;7.00;;
9236;SDS011;24579;42.810;23.214;2022-08-21T11:52:42;14.80;;;6.97;;
9236;SDS011;24579;42.810;23.214;2022-08-21T11:55:16;12.48;;;7.03;;
9236;SDS011;24579;42.810;23.214;2022-08-21T11:57:51;10.50;;;6.82;;
9236;SDS011;24579;42.810;23.214;2022-08-21T12:00:22;12.30;;;7.47;;
9236;SDS011;24579;42.810;23.214;2022-08-21T12:02:52;9.57;;;7.10;;
9236;SDS011;24579;42.810;23.214;2022-08-21T12:05:23;10.57;;;7.45;;
9236;SDS011;24579;42.810;23.214;2022-08-21T12:08:00;11.65;;;6.85;;
9236;SDS011;24579;42.810;23.214;2022-08-21T12:10:33;13.40;;;7.38;;
9236;SDS011;24579;42.810;23.214;2022-08-21T12:13:09;10.13;;;7.05;;
9236;SDS011;24579;42.810;23.214;2022-08-21T12:15:47;9.57;;;6.82;;
9236;SDS011;24579;42.810;23.214;2022-08-21T12:18:20;10.25;;;6.75;;
9236;SDS011;24579;42.810;23.214;2022-08-21T12:21:03;12.88;;;7.53;;
9236;SDS011;24579;42.810;23.214;2022-08-21T12:23:44;11.75;;;7.53;;
9236;SDS011;24579;42.810;23.214;2022-08-21T12:26:22;9.30;;;6.50;;
9236;SDS011;24579;42.810;23.214;2022-08-21T12:29:02;11.77;;;7.00;;
9236;SDS011;24579;42.810;23.214;2022-08-21T12:31:49;9.05;;;6.95;;
9236;SDS011;24579;42.810;23.214;2022-08-21T12:34:18;11.85;;;7.10;;
9236;SDS011;24579;42.810;23.214;2022-08-21T12:36:52;9.93;;;6.88;;
9236;SDS011;24579;42.810;23.214;2022-08-21T12:39:23;10.45;;;6.53;;
9236;SDS011;24579;42.810;23.214;2022-08-21T12:41:55;13.07;;;6.53;;
9236;SDS011;24579;42.810;23.214;2022-08-21T12:44:28;9.25;;;6.45;;
9236;SDS011;24579;42.810;23.214;2022-08-21T12:47:02;11.27;;;7.00;;
9236;SDS011;24579;42.810;23.214;2022-08-21T12:49:32;10.88;;;6.70;;
9236;SDS011;24579;42.810;23.214;2022-08-21T12:52:05;13.05;;;7.82;;
9236;SDS011;24579;42.810;23.214;2022-08-21T12:54:39;12.48;;;8.27;;
9236;SDS011;24579;42.810;23.214;2022-08-21T12:57:09;11.63;;;7.25;;
9236;SDS011;24579;42.810;23.214;2022-08-21T12:59:44;10.73;;;7.10;;
9236;SDS011;24579;42.810;23.214;2022-08-21T13:02:14;13.48;;;7.30;;
9236;SDS011;24579;42.810;23.214;2022-08-21T13:04:45;12.00;;;7.80;;
9236;SDS011;24579;42.810;23.214;2022-08-21T13:07:15;11.70;;;7.50;;
9236;SDS011;24579;42.810;23.214;2022-08-21T13:09:49;10.43;;;7.78;;
9236;SDS011;24579;42.810;23.214;2022-08-21T13:12:21;13.23;;;8.60;;
9236;SDS011;24579;42.810;23.214;2022-08-21T13:14:50;12.23;;;7.80;;
9236;SDS011;24579;42.810;23.214;2022-08-21T13:17:21;10.77;;;8.32;;
9236;SDS011;24579;42.810;23.214;2022-08-21T13:19:54;14.75;;;8.40;;
9236;SDS011;24579;42.810;23.214;2022-08-21T13:22:24;13.43;;;8.20;;
9236;SDS011;24579;42.810;23.214;2022-08-21T13:24:52;14.10;;;8.52;;
9236;SDS011;24579;42.810;23.214;2022-08-21T13:27:25;13.00;;;8.20;;
9236;SDS011;24579;42.810;23.214;2022-08-21T13:30:00;15.80;;;8.40;;
9236;SDS011;24579;42.810;23.214;2022-08-21T13:32:33;13.05;;;8.00;;
9236;SDS011;24579;42.810;23.214;2022-08-21T13:35:10;14.25;;;8.55;;
9236;SDS011;24579;42.810;23.214;2022-08-21T13:37:40;11.77;;;8.68;;
9236;SDS011;24579;42.810;23.214;2022-08-21T13:40:12;15.50;;;8.45;;
9236;SDS011;24579;42.810;23.214;2022-08-21T13:42:44;15.25;;;8.40;;
9236;SDS011;24579;42.810;23.214;2022-08-21T13:45:18;13.70;;;7.50;;
9236;SDS011;24579;42.810;23.214;2022-08-21T13:47:49;10.80;;;7.82;;
9236;SDS011;24579;42.810;23.214;2022-08-21T13:50:18;14.10;;;8.35;;
9236;SDS011;24579;42.810;23.214;2022-08-21T13:52:53;14.05;;;7.88;;
9236;SDS011;24579;42.810;23.214;2022-08-21T13:55:22;11.55;;;8.27;;
9236;SDS011;24579;42.810;23.214;2022-08-21T13:57:59;13.05;;;8.23;;
9236;SDS011;24579;42.810;23.214;2022-08-21T14:00:28;14.48;;;8.48;;
9236;SDS011;24579;42.810;23.214;2022-08-21T14:03:00;12.90;;;8.48;;
9236;SDS011;24579;42.810;23.214;2022-08-21T14:05:32;19.75;;;10.52;;
9236;SDS011;24579;42.810;23.214;2022-08-21T14:08:02;14.07;;;8.73;;
9236;SDS011;24579;42.810;23.214;2022-08-21T14:10:35;12.15;;;8.57;;
9236;SDS011;24579;42.810;23.214;2022-08-21T14:13:14;10.82;;;8.15;;
9236;SDS011;24579;42.810;23.214;2022-08-21T14:16:03;12.13;;;8.02;;
9236;SDS011;24579;42.810;23.214;2022-08-21T14:18:42;11.40;;;7.65;;
9236;SDS011;24579;42.810;23.214;2022-08-21T14:21:11;13.07;;;7.90;;
9236;SDS011;24579;42.810;23.214;2022-08-21T14:23:38;13.30;;;7.53;;
9236;SDS011;24579;42.810;23.214;2022-08-21T14:26:06;14.98;;;7.85;;
9236;SDS011;24579;42.810;23.214;2022-08-21T14:28:37;13.30;;;7.40;;
9236;SDS011;24579;42.810;23.214;2022-08-21T14:31:13;12.20;;;7.07;;
9236;SDS011;24579;42.810;23.214;2022-08-21T14:33:42;10.88;;;8.00;;
9236;SDS011;24579;42.810;23.214;2022-08-21T14:36:10;11.77;;;7.97;;
9236;SDS011;24579;42.810;23.214;2022-08-21T14:38:38;14.25;;;8.20;;
9236;SDS011;24579;42.810;23.214;2022-08-21T14:41:09;11.93;;;8.25;;
9236;SDS011;24579;42.810;23.214;2022-08-21T14:43:43;12.38;;;8.02;;
9236;SDS011;24579;42.810;23.214;2022-08-21T14:46:12;10.90;;;7.43;;